20.8°F
Current conditions from King Hill
Updated every 5 minutes
 
  Saturday December 20, 2014

Station Historical Data
Daily Summary for December 14, 2011 Units:  Both    English   Metric
« Previous Day
Next Day »
Daily Weekly Monthly Yearly Custom
  High: Low: Average:
Temperature: 38.6 °F /  3.7 °C 32.4 °F /  0.2 °C 35.1 °F /  1.7 °C
Dew Point: 34.0 °F /  1.1 °C 28.9 °F /  -1.7 °C 31.4 °F /  -0.3 °C
Humidity: 94% 75% 87%
Wind Speed: 8.0mph /  12.9km/h - 2.4mph /  3.9km/h
Wind Gust: 15.0mph /  24.1km/h - -
Wind- - South
Pressure: 30.38 in /  1028.7 hPa 30.11 in /  1019.5 hPa -
Precipitation: 0.00 in /  0 mm    
Historical Graphs
 
 
Tabular Data for December 14, 2011
Time Temperature Dew Point Pressure Wind Wind Speed Wind Gust Humidity Daily Rainfall
06:34 32.4 °F /  0.2 °C 30.3 °F /  -0.9 °C 30.36in /  1028hPa Calm     92% 0.00in /  0mm
06:39 32.4 °F /  0.2 °C 30.3 °F /  -0.9 °C 30.36in /  1028hPa Calm     92% 0.00in /  0mm
06:44 32.5 °F /  0.3 °C 30.4 °F /  -0.9 °C 30.36in /  1028hPa Calm     92% 0.00in /  0mm
06:49 32.6 °F /  0.3 °C 30.5 °F /  -0.8 °C 30.36in /  1028hPa Calm     92% 0.00in /  0mm
06:54 32.6 °F /  0.3 °C 30.5 °F /  -0.8 °C 30.36in /  1028hPa Calm     92% 0.00in /  0mm
06:59 32.6 °F /  0.3 °C 30.5 °F /  -0.8 °C 30.36in /  1028hPa Calm     92% 0.00in /  0mm
07:04 32.6 °F /  0.3 °C 30.5 °F /  -0.8 °C 30.36in /  1028hPa Calm     92% 0.00in /  0mm
07:09 32.6 °F /  0.3 °C 30.5 °F /  -0.8 °C 30.36in /  1028hPa Calm     92% 0.00in /  0mm
07:14 32.7 °F /  0.4 °C 30.6 °F /  -0.8 °C 30.36in /  1028hPa Calm     92% 0.00in /  0mm
07:19 32.7 °F /  0.4 °C 30.6 °F /  -0.8 °C 30.36in /  1028hPa Calm     92% 0.00in /  0mm
07:24 32.7 °F /  0.4 °C 30.6 °F /  -0.8 °C 30.36in /  1028hPa Calm     92% 0.00in /  0mm
07:30 32.7 °F /  0.4 °C 30.6 °F /  -0.8 °C 30.36in /  1028hPa Calm     92% 0.00in /  0mm
07:34 32.7 °F /  0.4 °C 30.6 °F /  -0.8 °C 30.36in /  1028hPa Calm   1.0mph /  1.6km/h 92% 0.00in /  0mm
07:39 32.8 °F /  0.4 °C 30.7 °F /  -0.7 °C 30.36in /  1028hPa Calm   1.0mph /  1.6km/h 92% 0.00in /  0mm
07:45 32.8 °F /  0.4 °C 30.7 °F /  -0.7 °C 30.37in /  1028.3hPa Calm   1.0mph /  1.6km/h 92% 0.00in /  0mm
07:54 32.9 °F /  0.5 °C 31.1 °F /  -0.5 °C 30.37in /  1028.3hPa Calm     93% 0.00in /  0mm
07:59 32.9 °F /  0.5 °C 31.1 °F /  -0.5 °C 30.37in /  1028.3hPa Calm     93% 0.00in /  0mm
08:04 33.0 °F /  0.6 °C 31.2 °F /  -0.4 °C 30.37in /  1028.3hPa Calm   1.0mph /  1.6km/h 93% 0.00in /  0mm
08:09 33.0 °F /  0.6 °C 31.2 °F /  -0.4 °C 30.37in /  1028.3hPa Calm   1.0mph /  1.6km/h 93% 0.00in /  0mm
08:14 33.0 °F /  0.6 °C 31.2 °F /  -0.4 °C 30.37in /  1028.3hPa Calm   2.0mph /  3.2km/h 93% 0.00in /  0mm
08:19 33.1 °F /  0.6 °C 31.3 °F /  -0.4 °C 30.37in /  1028.3hPa Calm   2.0mph /  3.2km/h 93% 0.00in /  0mm
08:24 33.1 °F /  0.6 °C 31.3 °F /  -0.4 °C 30.37in /  1028.3hPa Calm     93% 0.00in /  0mm
08:30 33.1 °F /  0.6 °C 31.3 °F /  -0.4 °C 30.37in /  1028.3hPa Calm     93% 0.00in /  0mm
08:39 33.3 °F /  0.7 °C 31.5 °F /  -0.3 °C 30.37in /  1028.3hPa Calm     93% 0.00in /  0mm
08:44 33.3 °F /  0.7 °C 31.5 °F /  -0.3 °C 30.37in /  1028.3hPa Calm   1.0mph /  1.6km/h 93% 0.00in /  0mm
08:49 33.3 °F /  0.7 °C 31.5 °F /  -0.3 °C 30.37in /  1028.3hPa Calm   1.0mph /  1.6km/h 93% 0.00in /  0mm
08:54 33.3 °F /  0.7 °C 31.5 °F /  -0.3 °C 30.38in /  1028.7hPa South 1.0mph /  1.6km/h 2.0mph /  3.2km/h 93% 0.00in /  0mm
08:59 33.3 °F /  0.7 °C 31.5 °F /  -0.3 °C 30.38in /  1028.7hPa Calm   2.0mph /  3.2km/h 93% 0.00in /  0mm
09:04 33.3 °F /  0.7 °C 31.5 °F /  -0.3 °C 30.38in /  1028.7hPa Calm   2.0mph /  3.2km/h 93% 0.00in /  0mm
09:09 33.3 °F /  0.7 °C 31.5 °F /  -0.3 °C 30.38in /  1028.7hPa Calm   2.0mph /  3.2km/h 93% 0.00in /  0mm
09:14 33.4 °F /  0.8 °C 31.6 °F /  -0.2 °C 30.37in /  1028.3hPa South 1.0mph /  1.6km/h 2.0mph /  3.2km/h 93% 0.00in /  0mm
09:19 33.4 °F /  0.8 °C 31.6 °F /  -0.2 °C 30.37in /  1028.3hPa Calm   2.0mph /  3.2km/h 93% 0.00in /  0mm
09:24 33.6 °F /  0.9 °C 32.1 °F /  0.1 °C 30.38in /  1028.7hPa Calm   2.0mph /  3.2km/h 94% 0.00in /  0mm
09:29 33.6 °F /  0.9 °C 32.1 °F /  0.1 °C 30.38in /  1028.7hPa South 1.0mph /  1.6km/h 2.0mph /  3.2km/h 94% 0.00in /  0mm
09:34 33.6 °F /  0.9 °C 32.1 °F /  0.1 °C 30.38in /  1028.7hPa Calm   2.0mph /  3.2km/h 94% 0.00in /  0mm
09:45 33.7 °F /  0.9 °C 32.2 °F /  0.1 °C 30.37in /  1028.3hPa Calm   1.0mph /  1.6km/h 94% 0.00in /  0mm
09:54 34.0 °F /  1.1 °C 32.5 °F /  0.3 °C 30.37in /  1028.3hPa Calm   2.0mph /  3.2km/h 94% 0.00in /  0mm
09:59 34.3 °F /  1.3 °C 32.8 °F /  0.4 °C 30.38in /  1028.7hPa Calm   1.0mph /  1.6km/h 94% 0.00in /  0mm
10:04 34.4 °F /  1.3 °C 32.9 °F /  0.5 °C 30.38in /  1028.7hPa Calm   1.0mph /  1.6km/h 94% 0.00in /  0mm
10:09 34.4 °F /  1.3 °C 32.9 °F /  0.5 °C 30.38in /  1028.7hPa Calm     94% 0.00in /  0mm
10:14 34.2 °F /  1.2 °C 32.7 °F /  0.4 °C 30.38in /  1028.7hPa Calm     94% 0.00in /  0mm
10:19 34.1 °F /  1.2 °C 32.6 °F /  0.3 °C 30.38in /  1028.7hPa Calm     94% 0.00in /  0mm
10:25 34.2 °F /  1.2 °C 32.7 °F /  0.4 °C 30.38in /  1028.7hPa Calm     94% 0.00in /  0mm
10:34 34.4 °F /  1.3 °C 32.9 °F /  0.5 °C 30.37in /  1028.3hPa Calm     94% 0.00in /  0mm
10:44 34.7 °F /  1.5 °C 33.2 °F /  0.7 °C 30.37in /  1028.3hPa Calm     94% 0.00in /  0mm
10:49 34.7 °F /  1.5 °C 33.2 °F /  0.7 °C 30.36in /  1028hPa Calm     94% 0.00in /  0mm
10:54 34.9 °F /  1.6 °C 33.4 °F /  0.8 °C 30.36in /  1028hPa Calm     94% 0.00in /  0mm
10:59 35.0 °F /  1.7 °C 33.4 °F /  0.8 °C 30.36in /  1028hPa Calm   1.0mph /  1.6km/h 94% 0.00in /  0mm
11:04 34.8 °F /  1.6 °C 33.3 °F /  0.7 °C 30.35in /  1027.7hPa Calm   2.0mph /  3.2km/h 94% 0.00in /  0mm
11:09 34.8 °F /  1.6 °C 33.3 °F /  0.7 °C 30.35in /  1027.7hPa Calm   2.0mph /  3.2km/h 94% 0.00in /  0mm
11:14 34.9 °F /  1.6 °C 33.4 °F /  0.8 °C 30.35in /  1027.7hPa Calm     94% 0.00in /  0mm
11:19 35.0 °F /  1.7 °C 33.4 °F /  0.8 °C 30.35in /  1027.7hPa Calm     94% 0.00in /  0mm
11:24 35.1 °F /  1.7 °C 33.5 °F /  0.8 °C 30.35in /  1027.7hPa Calm   2.0mph /  3.2km/h 94% 0.00in /  0mm
11:34 35.2 °F /  1.8 °C 33.6 °F /  0.9 °C 30.34in /  1027.3hPa Calm   2.0mph /  3.2km/h 94% 0.00in /  0mm
11:44 35.4 °F /  1.9 °C 33.8 °F /  1 °C 30.34in /  1027.3hPa Calm   2.0mph /  3.2km/h 94% 0.00in /  0mm
11:49 35.5 °F /  1.9 °C 33.9 °F /  1.1 °C 30.34in /  1027.3hPa South 1.0mph /  1.6km/h 3.0mph /  4.8km/h 94% 0.00in /  0mm
11:54 35.4 °F /  1.9 °C 33.8 °F /  1 °C 30.35in /  1027.7hPa South 1.0mph /  1.6km/h 3.0mph /  4.8km/h 94% 0.00in /  0mm
11:59 35.4 °F /  1.9 °C 33.6 °F /  0.9 °C 30.35in /  1027.7hPa South 2.0mph /  3.2km/h 4.0mph /  6.4km/h 93% 0.00in /  0mm
12:04 35.5 °F /  1.9 °C 33.7 °F /  0.9 °C 30.35in /  1027.7hPa Calm   4.0mph /  6.4km/h 93% 0.00in /  0mm
12:09 35.7 °F /  2.1 °C 33.9 °F /  1.1 °C 30.35in /  1027.7hPa Calm   3.0mph /  4.8km/h 93% 0.00in /  0mm
12:14 35.8 °F /  2.1 °C 34.0 °F /  1.1 °C 30.35in /  1027.7hPa South 1.0mph /  1.6km/h 4.0mph /  6.4km/h 93% 0.00in /  0mm
12:19 35.9 °F /  2.2 °C 33.8 °F /  1 °C 30.34in /  1027.3hPa Calm   4.0mph /  6.4km/h 92% 0.00in /  0mm
12:24 35.9 °F /  2.2 °C 33.8 °F /  1 °C 30.34in /  1027.3hPa South 3.0mph /  4.8km/h 4.0mph /  6.4km/h 92% 0.00in /  0mm
12:29 36.1 °F /  2.3 °C 33.7 °F /  0.9 °C 30.34in /  1027.3hPa Calm   4.0mph /  6.4km/h 91% 0.00in /  0mm
12:39 36.2 °F /  2.3 °C 33.6 °F /  0.9 °C 30.34in /  1027.3hPa Calm   4.0mph /  6.4km/h 90% 0.00in /  0mm
12:44 36.4 °F /  2.4 °C 33.7 °F /  0.9 °C 30.33in /  1027hPa Calm   4.0mph /  6.4km/h 90% 0.00in /  0mm
12:49 36.4 °F /  2.4 °C 33.5 °F /  0.8 °C 30.33in /  1027hPa SSW 3.0mph /  4.8km/h 5.0mph /  8km/h 89% 0.00in /  0mm
12:54 36.4 °F /  2.4 °C 33.5 °F /  0.8 °C 30.34in /  1027.3hPa Calm   5.0mph /  8km/h 89% 0.00in /  0mm
12:59 36.4 °F /  2.4 °C 33.2 °F /  0.7 °C 30.33in /  1027hPa SSW 2.0mph /  3.2km/h 4.0mph /  6.4km/h 88% 0.00in /  0mm
13:04 36.5 °F /  2.5 °C 33.3 °F /  0.7 °C 30.33in /  1027hPa SSW 2.0mph /  3.2km/h 4.0mph /  6.4km/h 88% 0.00in /  0mm
13:09 36.6 °F /  2.6 °C 33.1 °F /  0.6 °C 30.33in /  1027hPa SSW 1.0mph /  1.6km/h 4.0mph /  6.4km/h 87% 0.00in /  0mm
13:14 36.7 °F /  2.6 °C 33.2 °F /  0.7 °C 30.32in /  1026.6hPa Calm   3.0mph /  4.8km/h 87% 0.00in /  0mm
13:19 36.7 °F /  2.6 °C 33.2 °F /  0.7 °C 30.32in /  1026.6hPa SSW 1.0mph /  1.6km/h 3.0mph /  4.8km/h 87% 0.00in /  0mm
13:24 36.8 °F /  2.7 °C 33.3 °F /  0.7 °C 30.31in /  1026.3hPa Calm   4.0mph /  6.4km/h 87% 0.00in /  0mm
13:29 36.7 °F /  2.6 °C 32.9 °F /  0.5 °C 30.31in /  1026.3hPa SSW 2.0mph /  3.2km/h 5.0mph /  8km/h 86% 0.00in /  0mm
13:34 36.6 °F /  2.6 °C 32.8 °F /  0.4 °C 30.31in /  1026.3hPa SSW 3.0mph /  4.8km/h 5.0mph /  8km/h 86% 0.00in /  0mm
13:39 36.7 °F /  2.6 °C 32.9 °F /  0.5 °C 30.31in /  1026.3hPa SSW 1.0mph /  1.6km/h 5.0mph /  8km/h 86% 0.00in /  0mm
13:44 37.0 °F /  2.8 °C 33.2 °F /  0.7 °C 30.31in /  1026.3hPa SSW 1.0mph /  1.6km/h 5.0mph /  8km/h 86% 0.00in /  0mm
13:49 36.9 °F /  2.7 °C 32.8 °F /  0.4 °C 30.31in /  1026.3hPa SW 3.0mph /  4.8km/h 5.0mph /  8km/h 85% 0.00in /  0mm
13:54 36.8 °F /  2.7 °C 32.7 °F /  0.4 °C 30.32in /  1026.6hPa SW 1.0mph /  1.6km/h 5.0mph /  8km/h 85% 0.00in /  0mm
13:59 37.0 °F /  2.8 °C 32.9 °F /  0.5 °C 30.32in /  1026.6hPa SW 2.0mph /  3.2km/h 5.0mph /  8km/h 85% 0.00in /  0mm
14:04 37.1 °F /  2.8 °C 33.0 °F /  0.6 °C 30.31in /  1026.3hPa SW 1.0mph /  1.6km/h 4.0mph /  6.4km/h 85% 0.00in /  0mm
14:09 37.1 °F /  2.8 °C 33.0 °F /  0.6 °C 30.31in /  1026.3hPa SSE 1.0mph /  1.6km/h 4.0mph /  6.4km/h 85% 0.00in /  0mm
14:14 36.9 °F /  2.7 °C 32.8 °F /  0.4 °C 30.31in /  1026.3hPa SSE 1.0mph /  1.6km/h 4.0mph /  6.4km/h 85% 0.00in /  0mm
14:19 36.6 °F /  2.6 °C 32.5 °F /  0.3 °C 30.31in /  1026.3hPa SSE 2.0mph /  3.2km/h 5.0mph /  8km/h 85% 0.00in /  0mm
14:24 36.5 °F /  2.5 °C 32.4 °F /  0.2 °C 30.31in /  1026.3hPa South 3.0mph /  4.8km/h 6.0mph /  9.7km/h 85% 0.00in /  0mm
14:30 36.4 °F /  2.4 °C 32.3 °F /  0.2 °C 30.31in /  1026.3hPa Calm   6.0mph /  9.7km/h 85% 0.00in /  0mm
14:40 36.4 °F /  2.4 °C 32.6 °F /  0.3 °C 30.31in /  1026.3hPa Calm   1.0mph /  1.6km/h 86% 0.00in /  0mm
14:49 36.4 °F /  2.4 °C 32.3 °F /  0.2 °C 30.31in /  1026.3hPa Calm   4.0mph /  6.4km/h 85% 0.00in /  0mm
14:54 36.5 °F /  2.5 °C 32.4 °F /  0.2 °C 30.30in /  1026hPa Calm   4.0mph /  6.4km/h 85% 0.00in /  0mm
14:59 36.4 °F /  2.4 °C 32.3 °F /  0.2 °C 30.30in /  1026hPa Calm   3.0mph /  4.8km/h 85% 0.00in /  0mm
15:04 36.5 °F /  2.5 °C 32.4 °F /  0.2 °C 30.29in /  1025.6hPa South 2.0mph /  3.2km/h 6.0mph /  9.7km/h 85% 0.00in /  0mm
15:09 36.5 °F /  2.5 °C 32.4 °F /  0.2 °C 30.29in /  1025.6hPa South 1.0mph /  1.6km/h 6.0mph /  9.7km/h 85% 0.00in /  0mm
15:14 36.5 °F /  2.5 °C 32.4 °F /  0.2 °C 30.29in /  1025.6hPa South 1.0mph /  1.6km/h 3.0mph /  4.8km/h 85% 0.00in /  0mm
15:19 36.6 °F /  2.6 °C 32.5 °F /  0.3 °C 30.29in /  1025.6hPa Calm   4.0mph /  6.4km/h 85% 0.00in /  0mm
15:24 36.5 °F /  2.5 °C 32.4 °F /  0.2 °C 30.30in /  1026hPa Calm   4.0mph /  6.4km/h 85% 0.00in /  0mm
15:29 36.5 °F /  2.5 °C 32.4 °F /  0.2 °C 30.30in /  1026hPa South 1.0mph /  1.6km/h 4.0mph /  6.4km/h 85% 0.00in /  0mm
15:34 36.5 °F /  2.5 °C 32.4 °F /  0.2 °C 30.30in /  1026hPa South 1.0mph /  1.6km/h 4.0mph /  6.4km/h 85% 0.00in /  0mm
15:39 36.4 °F /  2.4 °C 32.0 °F /  0 °C 30.30in /  1026hPa South 1.0mph /  1.6km/h 4.0mph /  6.4km/h 84% 0.00in /  0mm
15:44 36.4 °F /  2.4 °C 32.0 °F /  0 °C 30.30in /  1026hPa South 1.0mph /  1.6km/h 5.0mph /  8km/h 84% 0.00in /  0mm
15:49 36.3 °F /  2.4 °C 31.9 °F /  -0.1 °C 30.30in /  1026hPa Calm   5.0mph /  8km/h 84% 0.00in /  0mm
15:54 36.1 °F /  2.3 °C 31.7 °F /  -0.2 °C 30.29in /  1025.6hPa Calm   2.0mph /  3.2km/h 84% 0.00in /  0mm
15:59 36.0 °F /  2.2 °C 31.6 °F /  -0.2 °C 30.29in /  1025.6hPa Calm   1.0mph /  1.6km/h 84% 0.00in /  0mm
16:04 36.0 °F /  2.2 °C 31.6 °F /  -0.2 °C 30.29in /  1025.6hPa South 2.0mph /  3.2km/h 5.0mph /  8km/h 84% 0.00in /  0mm
16:09 36.1 °F /  2.3 °C 31.7 °F /  -0.2 °C 30.28in /  1025.3hPa SSE 1.0mph /  1.6km/h 5.0mph /  8km/h 84% 0.00in /  0mm
16:14 36.1 °F /  2.3 °C 31.7 °F /  -0.2 °C 30.28in /  1025.3hPa Calm   4.0mph /  6.4km/h 84% 0.00in /  0mm
16:19 36.0 °F /  2.2 °C 31.6 °F /  -0.2 °C 30.28in /  1025.3hPa Calm   3.0mph /  4.8km/h 84% 0.00in /  0mm
16:24 35.9 °F /  2.2 °C 31.5 °F /  -0.3 °C 30.29in /  1025.6hPa Calm   3.0mph /  4.8km/h 84% 0.00in /  0mm
16:29 35.9 °F /  2.2 °C 31.5 °F /  -0.3 °C 30.29in /  1025.6hPa Calm   2.0mph /  3.2km/h 84% 0.00in /  0mm
16:40 35.4 °F /  1.9 °C 31.1 °F /  -0.5 °C 30.30in /  1026hPa Calm   2.0mph /  3.2km/h 84% 0.00in /  0mm
16:49 34.9 °F /  1.6 °C 30.9 °F /  -0.6 °C 30.30in /  1026hPa Calm   1.0mph /  1.6km/h 85% 0.00in /  0mm
16:54 34.8 °F /  1.6 °C 30.8 °F /  -0.7 °C 30.30in /  1026hPa Calm   1.0mph /  1.6km/h 85% 0.00in /  0mm
16:59 34.7 °F /  1.5 °C 30.7 °F /  -0.7 °C 30.30in /  1026hPa Calm     85% 0.00in /  0mm
17:04 34.4 °F /  1.3 °C 30.4 °F /  -0.9 °C 30.30in /  1026hPa Calm     85% 0.00in /  0mm
17:09 34.3 °F /  1.3 °C 30.6 °F /  -0.8 °C 30.29in /  1025.6hPa Calm     86% 0.00in /  0mm
17:14 34.0 °F /  1.1 °C 30.3 °F /  -0.9 °C 30.30in /  1026hPa Calm     86% 0.00in /  0mm
17:19 33.9 °F /  1.1 °C 30.2 °F /  -1 °C 30.30in /  1026hPa Calm     86% 0.00in /  0mm
17:25 33.9 °F /  1.1 °C 30.4 °F /  -0.9 °C 30.30in /  1026hPa Calm     87% 0.00in /  0mm
17:34 33.8 °F /  1 °C 30.3 °F /  -0.9 °C 30.29in /  1025.6hPa Calm     87% 0.00in /  0mm
17:39 33.5 °F /  0.8 °C 30.0 °F /  -1.1 °C 30.29in /  1025.6hPa Calm   2.0mph /  3.2km/h 87% 0.00in /  0mm
17:44 33.3 °F /  0.7 °C 29.9 °F /  -1.2 °C 30.29in /  1025.6hPa Calm   2.0mph /  3.2km/h 87% 0.00in /  0mm
17:49 33.1 °F /  0.6 °C 29.7 °F /  -1.3 °C 30.28in /  1025.3hPa Calm     87% 0.00in /  0mm
17:54 33.0 °F /  0.6 °C 29.6 °F /  -1.3 °C 30.27in /  1024.9hPa Calm   1.0mph /  1.6km/h 87% 0.00in /  0mm
17:59 33.0 °F /  0.6 °C 29.6 °F /  -1.3 °C 30.27in /  1024.9hPa Calm   2.0mph /  3.2km/h 87% 0.00in /  0mm
18:04 33.3 °F /  0.7 °C 30.1 °F /  -1.1 °C 30.26in /  1024.6hPa SSE 2.0mph /  3.2km/h 5.0mph /  8km/h 88% 0.00in /  0mm
18:09 33.6 °F /  0.9 °C 30.4 °F /  -0.9 °C 30.25in /  1024.3hPa SSE 1.0mph /  1.6km/h 6.0mph /  9.7km/h 88% 0.00in /  0mm
18:14 33.9 °F /  1.1 °C 30.4 °F /  -0.9 °C 30.25in /  1024.3hPa SSE 1.0mph /  1.6km/h 6.0mph /  9.7km/h 87% 0.00in /  0mm
18:19 34.1 °F /  1.2 °C 30.6 °F /  -0.8 °C 30.25in /  1024.3hPa SSE 2.0mph /  3.2km/h 5.0mph /  8km/h 87% 0.00in /  0mm
18:29 34.2 °F /  1.2 °C 30.5 °F /  -0.8 °C 30.25in /  1024.3hPa South 1.0mph /  1.6km/h 4.0mph /  6.4km/h 86% 0.00in /  0mm
18:35 34.3 °F /  1.3 °C 30.3 °F /  -0.9 °C 30.24in /  1023.9hPa South 1.0mph /  1.6km/h 4.0mph /  6.4km/h 85% 0.00in /  0mm
18:44 34.4 °F /  1.3 °C 30.1 °F /  -1.1 °C 30.24in /  1023.9hPa Calm   5.0mph /  8km/h 84% 0.00in /  0mm
18:49 34.1 °F /  1.2 °C 29.5 °F /  -1.4 °C 30.24in /  1023.9hPa Calm   2.0mph /  3.2km/h 83% 0.00in /  0mm
18:54 33.6 °F /  0.9 °C 29.0 °F /  -1.7 °C 30.24in /  1023.9hPa Calm   3.0mph /  4.8km/h 83% 0.00in /  0mm
18:59 33.2 °F /  0.7 °C 28.9 °F /  -1.7 °C 30.24in /  1023.9hPa South 1.0mph /  1.6km/h 4.0mph /  6.4km/h 84% 0.00in /  0mm
19:04 33.1 °F /  0.6 °C 29.1 °F /  -1.6 °C 30.24in /  1023.9hPa South 1.0mph /  1.6km/h 5.0mph /  8km/h 85% 0.00in /  0mm
19:09 33.2 °F /  0.7 °C 29.2 °F /  -1.6 °C 30.24in /  1023.9hPa South 1.0mph /  1.6km/h 5.0mph /  8km/h 85% 0.00in /  0mm
19:14 33.2 °F /  0.7 °C 29.2 °F /  -1.6 °C 30.24in /  1023.9hPa South 1.0mph /  1.6km/h 4.0mph /  6.4km/h 85% 0.00in /  0mm
19:19 33.1 °F /  0.6 °C 29.1 °F /  -1.6 °C 30.23in /  1023.6hPa South 2.0mph /  3.2km/h 5.0mph /  8km/h 85% 0.00in /  0mm
19:24 33.4 °F /  0.8 °C 29.4 °F /  -1.4 °C 30.23in /  1023.6hPa South 2.0mph /  3.2km/h 5.0mph /  8km/h 85% 0.00in /  0mm
19:29 34.3 °F /  1.3 °C 30.3 °F /  -0.9 °C 30.22in /  1023.2hPa SSE 3.0mph /  4.8km/h 6.0mph /  9.7km/h 85% 0.00in /  0mm
19:34 35.0 °F /  1.7 °C 30.7 °F /  -0.7 °C 30.22in /  1023.2hPa South 4.0mph /  6.4km/h 8.0mph /  12.9km/h 84% 0.00in /  0mm
19:39 35.4 °F /  1.9 °C 30.5 °F /  -0.8 °C 30.22in /  1023.2hPa South 3.0mph /  4.8km/h 8.0mph /  12.9km/h 82% 0.00in /  0mm
19:44 35.5 °F /  1.9 °C 30.6 °F /  -0.8 °C 30.22in /  1023.2hPa SSW 2.0mph /  3.2km/h 8.0mph /  12.9km/h 82% 0.00in /  0mm
19:49 35.5 °F /  1.9 °C 30.3 °F /  -0.9 °C 30.22in /  1023.2hPa South 4.0mph /  6.4km/h 7.0mph /  11.3km/h 81% 0.00in /  0mm
19:54 35.5 °F /  1.9 °C 30.3 °F /  -0.9 °C 30.22in /  1023.2hPa SSW 2.0mph /  3.2km/h 7.0mph /  11.3km/h 81% 0.00in /  0mm
19:59 35.4 °F /  1.9 °C 30.2 °F /  -1 °C 30.23in /  1023.6hPa South 2.0mph /  3.2km/h 6.0mph /  9.7km/h 81% 0.00in /  0mm
20:04 35.2 °F /  1.8 °C 29.7 °F /  -1.3 °C 30.22in /  1023.2hPa Calm   6.0mph /  9.7km/h 80% 0.00in /  0mm
20:09 34.9 °F /  1.6 °C 29.4 °F /  -1.4 °C 30.22in /  1023.2hPa Calm   4.0mph /  6.4km/h 80% 0.00in /  0mm
20:14 34.4 °F /  1.3 °C 29.2 °F /  -1.6 °C 30.22in /  1023.2hPa SSW 2.0mph /  3.2km/h 4.0mph /  6.4km/h 81% 0.00in /  0mm
20:19 34.3 °F /  1.3 °C 29.1 °F /  -1.6 °C 30.22in /  1023.2hPa Calm   4.0mph /  6.4km/h 81% 0.00in /  0mm
20:24 34.2 °F /  1.2 °C 29.3 °F /  -1.5 °C 30.22in /  1023.2hPa SSW 2.0mph /  3.2km/h 6.0mph /  9.7km/h 82% 0.00in /  0mm
20:29 34.1 °F /  1.2 °C 29.2 °F /  -1.6 °C 30.22in /  1023.2hPa SSW 1.0mph /  1.6km/h 6.0mph /  9.7km/h 82% 0.00in /  0mm
20:34 34.3 °F /  1.3 °C 29.7 °F /  -1.3 °C 30.22in /  1023.2hPa SSW 3.0mph /  4.8km/h 6.0mph /  9.7km/h 83% 0.00in /  0mm
20:39 34.4 °F /  1.3 °C 29.8 °F /  -1.2 °C 30.22in /  1023.2hPa SW 3.0mph /  4.8km/h 6.0mph /  9.7km/h 83% 0.00in /  0mm
20:44 34.4 °F /  1.3 °C 29.8 °F /  -1.2 °C 30.22in /  1023.2hPa SW 3.0mph /  4.8km/h 6.0mph /  9.7km/h 83% 0.00in /  0mm
20:49 34.4 °F /  1.3 °C 29.8 °F /  -1.2 °C 30.22in /  1023.2hPa SSW 2.0mph /  3.2km/h 6.0mph /  9.7km/h 83% 0.00in /  0mm
20:54 34.4 °F /  1.3 °C 29.8 °F /  -1.2 °C 30.21in /  1022.9hPa SSW 1.0mph /  1.6km/h 6.0mph /  9.7km/h 83% 0.00in /  0mm
20:59 34.4 °F /  1.3 °C 29.8 °F /  -1.2 °C 30.21in /  1022.9hPa Calm   5.0mph /  8km/h 83% 0.00in /  0mm
21:04 34.4 °F /  1.3 °C 29.8 °F /  -1.2 °C 30.21in /  1022.9hPa Calm   5.0mph /  8km/h 83% 0.00in /  0mm
21:09 34.4 °F /  1.3 °C 29.8 °F /  -1.2 °C 30.21in /  1022.9hPa Calm   3.0mph /  4.8km/h 83% 0.00in /  0mm
21:14 34.4 °F /  1.3 °C 29.8 °F /  -1.2 °C 30.20in /  1022.6hPa Calm   3.0mph /  4.8km/h 83% 0.00in /  0mm
21:19 34.5 °F /  1.4 °C 29.9 °F /  -1.2 °C 30.19in /  1022.2hPa SSW 1.0mph /  1.6km/h 4.0mph /  6.4km/h 83% 0.00in /  0mm
21:24 35.0 °F /  1.7 °C 30.1 °F /  -1.1 °C 30.19in /  1022.2hPa SSW 2.0mph /  3.2km/h 5.0mph /  8km/h 82% 0.00in /  0mm
21:29 35.4 °F /  1.9 °C 30.2 °F /  -1 °C 30.19in /  1022.2hPa SSW 3.0mph /  4.8km/h 7.0mph /  11.3km/h 81% 0.00in /  0mm
21:34 35.8 °F /  2.1 °C 30.2 °F /  -1 °C 30.18in /  1021.9hPa South 4.0mph /  6.4km/h 11.0mph /  17.7km/h 80% 0.00in /  0mm
21:44 36.3 °F /  2.4 °C 30.4 °F /  -0.9 °C 30.17in /  1021.6hPa South 4.0mph /  6.4km/h 7.0mph /  11.3km/h 79% 0.00in /  0mm
21:49 36.6 °F /  2.6 °C 30.7 °F /  -0.7 °C 30.17in /  1021.6hPa South 4.0mph /  6.4km/h 10.0mph /  16.1km/h 79% 0.00in /  0mm
21:54 36.8 °F /  2.7 °C 30.6 °F /  -0.8 °C 30.17in /  1021.6hPa SSW 3.0mph /  4.8km/h 10.0mph /  16.1km/h 78% 0.00in /  0mm
22:04 36.7 °F /  2.6 °C 30.5 °F /  -0.8 °C 30.17in /  1021.6hPa SSW 4.0mph /  6.4km/h 8.0mph /  12.9km/h 78% 0.00in /  0mm
22:09 36.6 °F /  2.6 °C 30.4 °F /  -0.9 °C 30.17in /  1021.6hPa South 1.0mph /  1.6km/h 7.0mph /  11.3km/h 78% 0.00in /  0mm
22:14 36.6 °F /  2.6 °C 30.4 °F /  -0.9 °C 30.16in /  1021.2hPa South 4.0mph /  6.4km/h 9.0mph /  14.5km/h 78% 0.00in /  0mm
22:19 36.8 °F /  2.7 °C 30.6 °F /  -0.8 °C 30.15in /  1020.9hPa South 3.0mph /  4.8km/h 9.0mph /  14.5km/h 78% 0.00in /  0mm
22:24 37.0 °F /  2.8 °C 30.8 °F /  -0.7 °C 30.14in /  1020.5hPa South 5.0mph /  8km/h 11.0mph /  17.7km/h 78% 0.00in /  0mm
22:29 37.3 °F /  2.9 °C 31.1 °F /  -0.5 °C 30.14in /  1020.5hPa South 4.0mph /  6.4km/h 12.0mph /  19.3km/h 78% 0.00in /  0mm
22:34 37.5 °F /  3.1 °C 31.0 °F /  -0.6 °C 30.14in /  1020.5hPa South 5.0mph /  8km/h 12.0mph /  19.3km/h 77% 0.00in /  0mm
22:44 37.7 °F /  3.2 °C 31.1 °F /  -0.5 °C 30.12in /  1019.9hPa South 4.0mph /  6.4km/h 14.0mph /  22.5km/h 77% 0.00in /  0mm
22:49 37.6 °F /  3.1 °C 30.7 °F /  -0.7 °C 30.12in /  1019.9hPa South 3.0mph /  4.8km/h 14.0mph /  22.5km/h 76% 0.00in /  0mm
22:54 37.7 °F /  3.2 °C 31.1 °F /  -0.5 °C 30.12in /  1019.9hPa South 5.0mph /  8km/h 13.0mph /  20.9km/h 77% 0.00in /  0mm
22:59 37.7 °F /  3.2 °C 31.1 °F /  -0.5 °C 30.12in /  1019.9hPa SSW 2.0mph /  3.2km/h 13.0mph /  20.9km/h 77% 0.00in /  0mm
23:04 37.6 °F /  3.1 °C 31.0 °F /  -0.6 °C 30.12in /  1019.9hPa SSW 5.0mph /  8km/h 10.0mph /  16.1km/h 77% 0.00in /  0mm
23:09 37.7 °F /  3.2 °C 31.1 °F /  -0.5 °C 30.13in /  1020.2hPa SSW 3.0mph /  4.8km/h 10.0mph /  16.1km/h 77% 0.00in /  0mm
23:14 37.7 °F /  3.2 °C 31.1 °F /  -0.5 °C 30.13in /  1020.2hPa SSW 4.0mph /  6.4km/h 9.0mph /  14.5km/h 77% 0.00in /  0mm
23:19 37.8 °F /  3.2 °C 31.2 °F /  -0.4 °C 30.13in /  1020.2hPa South 2.0mph /  3.2km/h 9.0mph /  14.5km/h 77% 0.00in /  0mm
23:24 37.9 °F /  3.3 °C 31.0 °F /  -0.6 °C 30.12in /  1019.9hPa South 5.0mph /  8km/h 7.0mph /  11.3km/h 76% 0.00in /  0mm
23:29 38.0 °F /  3.3 °C 31.1 °F /  -0.5 °C 30.11in /  1019.5hPa SSW 3.0mph /  4.8km/h 7.0mph /  11.3km/h 76% 0.00in /  0mm
23:34 38.0 °F /  3.3 °C 31.1 °F /  -0.5 °C 30.12in /  1019.9hPa SSW 3.0mph /  4.8km/h 9.0mph /  14.5km/h 76% 0.00in /  0mm
23:39 38.0 °F /  3.3 °C 31.1 °F /  -0.5 °C 30.12in /  1019.9hPa SSW 4.0mph /  6.4km/h 9.0mph /  14.5km/h 76% 0.00in /  0mm
23:44 38.1 °F /  3.4 °C 31.2 °F /  -0.4 °C 30.11in /  1019.5hPa SSW 4.0mph /  6.4km/h 9.0mph /  14.5km/h 76% 0.00in /  0mm
23:49 38.3 °F /  3.5 °C 31.4 °F /  -0.3 °C 30.11in /  1019.5hPa SSW 6.0mph /  9.7km/h 15.0mph /  24.1km/h 76% 0.00in /  0mm
23:54 38.5 °F /  3.6 °C 31.3 °F /  -0.4 °C 30.11in /  1019.5hPa SSW 6.0mph /  9.7km/h 15.0mph /  24.1km/h 75% 0.00in /  0mm
23:59 38.6 °F /  3.7 °C 31.4 °F /  -0.3 °C 30.11in /  1019.5hPa SSW 8.0mph /  12.9km/h 15.0mph /  24.1km/h 75% 0.00in /  0mm
Westford Weather
Compliments of Weather Underground

 
 
Current Radar Loop:

Copyright © WestfordWeather.net 2007-2014. All rights reserved.